createdAt,value
2017-11-11T00:00:10.521Z,2.83
2017-11-11T00:02:38.082Z,2.70
2017-11-11T00:05:05.643Z,2.23
2017-11-11T00:07:33.250Z,2.40
2017-11-11T00:10:01.086Z,2.13
2017-11-11T00:12:28.650Z,2.50
2017-11-11T00:14:56.206Z,2.27
2017-11-11T00:17:23.770Z,2.83
2017-11-11T00:19:51.326Z,2.43
2017-11-11T00:22:18.899Z,2.17
2017-11-11T00:24:46.492Z,2.50
2017-11-11T00:27:14.050Z,2.33
2017-11-11T00:29:41.641Z,2.63
2017-11-11T00:32:09.239Z,2.60
2017-11-11T00:34:36.906Z,3.50
2017-11-11T00:37:04.503Z,2.70
2017-11-11T00:39:32.066Z,2.70
2017-11-11T00:41:59.664Z,2.10
2017-11-11T00:44:27.221Z,1.90
2017-11-11T00:46:54.782Z,2.43
2017-11-11T00:49:22.445Z,2.87
2017-11-11T00:51:50.062Z,2.77
2017-11-11T00:54:17.626Z,1.67
2017-11-11T00:56:45.233Z,2.13
2017-11-11T00:59:12.793Z,2.10
2017-11-11T01:01:40.357Z,3.20
2017-11-11T01:04:07.916Z,1.70
2017-11-11T01:06:35.470Z,2.80
2017-11-11T01:09:03.031Z,2.13
2017-11-11T01:11:30.591Z,2.30
2017-11-11T01:13:58.153Z,2.17
2017-11-11T01:16:25.714Z,2.00
2017-11-11T01:18:53.322Z,2.13
2017-11-11T01:21:20.880Z,1.50
2017-11-11T01:23:48.439Z,2.50
2017-11-11T01:26:15.998Z,2.50
2017-11-11T01:28:43.698Z,2.33
2017-11-11T01:31:11.246Z,2.10
2017-11-11T01:33:38.806Z,2.00
2017-11-11T01:36:06.398Z,2.00
2017-11-11T01:38:33.972Z,2.23
2017-11-11T01:41:01.531Z,2.40
2017-11-11T01:43:29.094Z,1.90
2017-11-11T01:45:56.714Z,2.00
2017-11-11T01:48:24.282Z,2.33
2017-11-11T01:50:51.840Z,2.20
2017-11-11T01:53:19.390Z,2.47
2017-11-11T01:55:46.952Z,3.13
2017-11-11T01:58:14.545Z,1.80
2017-11-11T02:00:42.106Z,2.30
2017-11-11T02:03:09.675Z,2.60
2017-11-11T02:05:37.231Z,2.67
2017-11-11T02:08:05.026Z,2.60
2017-11-11T02:10:32.595Z,2.90
2017-11-11T02:13:00.154Z,3.00
2017-11-11T02:15:27.744Z,2.73
2017-11-11T02:17:55.421Z,2.67
2017-11-11T02:20:22.985Z,2.70
2017-11-11T02:22:50.545Z,2.73
2017-11-11T02:25:18.189Z,2.50
2017-11-11T02:27:45.742Z,2.70
2017-11-11T02:30:13.302Z,2.50
2017-11-11T02:32:40.862Z,2.40
2017-11-11T02:35:08.450Z,2.77
2017-11-11T02:37:36.020Z,2.40
2017-11-11T02:40:03.602Z,2.77
2017-11-11T02:42:31.166Z,2.63
2017-11-11T02:44:58.721Z,1.93
2017-11-11T02:47:26.278Z,2.20
2017-11-11T02:49:53.861Z,2.23
2017-11-11T02:52:21.410Z,2.60
2017-11-11T02:54:48.970Z,1.97
2017-11-11T02:57:16.557Z,1.87
2017-11-11T02:59:44.140Z,2.57
2017-11-11T03:02:11.705Z,2.80
2017-11-11T03:04:39.397Z,2.13
2017-11-11T03:07:06.947Z,1.90
2017-11-11T03:09:34.505Z,2.50
2017-11-11T03:12:02.107Z,2.17
2017-11-11T03:14:29.667Z,1.90
2017-11-11T03:16:57.227Z,2.40
2017-11-11T03:19:24.838Z,2.37
2017-11-11T03:21:52.448Z,2.90
2017-11-11T03:24:20.010Z,2.40
2017-11-11T03:26:47.574Z,2.53
2017-11-11T03:29:15.180Z,2.10
2017-11-11T03:31:42.746Z,2.40
2017-11-11T03:34:10.341Z,2.07
2017-11-11T03:36:37.942Z,2.77
2017-11-11T03:39:05.497Z,2.37
2017-11-11T03:41:33.058Z,1.87
2017-11-11T03:44:00.908Z,2.70
2017-11-11T03:46:28.471Z,1.83
2017-11-11T03:48:56.038Z,3.03
2017-11-11T03:51:23.596Z,2.27
2017-11-11T03:53:51.202Z,2.83
2017-11-11T03:56:18.760Z,2.57
2017-11-11T03:58:46.371Z,2.30
2017-11-11T04:01:13.979Z,2.00
2017-11-11T04:03:41.684Z,2.20
2017-11-11T04:06:09.243Z,2.20
2017-11-11T04:08:36.798Z,1.97
2017-11-11T04:11:04.386Z,2.10
2017-11-11T04:13:31.945Z,2.47
2017-11-11T04:15:59.540Z,4.00
2017-11-11T04:18:27.226Z,2.83
2017-11-11T04:20:54.781Z,2.30
2017-11-11T04:23:22.356Z,3.63
2017-11-11T04:25:49.955Z,2.63
2017-11-11T04:28:17.531Z,2.80
2017-11-11T04:30:45.097Z,2.30
2017-11-11T04:33:12.662Z,3.00
2017-11-11T04:35:40.222Z,2.10
2017-11-11T04:38:07.822Z,2.73
2017-11-11T04:40:35.726Z,2.60
2017-11-11T04:43:03.344Z,2.80
2017-11-11T04:45:30.902Z,3.87
2017-11-11T04:47:58.462Z,3.50
2017-11-11T04:50:26.022Z,2.00
2017-11-11T04:52:53.587Z,2.83
2017-11-11T04:55:21.150Z,2.60
2017-11-11T04:57:48.715Z,3.20
2017-11-11T05:00:16.273Z,3.20
2017-11-11T05:02:43.863Z,2.70
2017-11-11T05:05:11.476Z,2.80
2017-11-11T05:07:39.038Z,3.30
2017-11-11T05:10:07.196Z,3.00
2017-11-11T05:12:34.850Z,3.53
2017-11-11T05:15:02.418Z,2.83
2017-11-11T05:17:29.979Z,3.20
2017-11-11T05:19:57.830Z,3.20
2017-11-11T05:22:25.393Z,4.80
2017-11-11T05:24:52.988Z,3.10
2017-11-11T05:27:20.544Z,3.93
2017-11-11T05:29:48.158Z,2.67
2017-11-11T05:32:15.721Z,3.93
2017-11-11T05:34:43.330Z,3.23
2017-11-11T05:37:10.970Z,2.27
2017-11-11T05:39:38.541Z,3.30
2017-11-11T05:42:06.134Z,2.80
2017-11-11T05:44:33.685Z,2.40
2017-11-11T05:47:01.247Z,2.97
2017-11-11T05:49:28.805Z,2.80
2017-11-11T05:51:56.361Z,2.73
2017-11-11T05:54:23.978Z,2.60
2017-11-11T05:56:51.542Z,3.30
2017-11-11T05:59:19.169Z,2.80
2017-11-11T06:01:46.752Z,3.00
2017-11-11T06:04:14.310Z,3.20
2017-11-11T06:06:41.881Z,2.83
2017-11-11T06:09:09.433Z,2.90
2017-11-11T06:11:37.039Z,2.37
2017-11-11T06:14:04.600Z,3.23
2017-11-11T06:16:32.179Z,3.30
2017-11-11T06:18:59.741Z,2.93
2017-11-11T06:21:27.301Z,3.37
2017-11-11T06:23:54.898Z,3.20
2017-11-11T06:26:22.493Z,3.03
2017-11-11T06:28:50.059Z,2.90
2017-11-11T06:31:17.619Z,3.73
2017-11-11T06:33:45.202Z,2.80
2017-11-11T06:36:12.766Z,2.70
2017-11-11T06:38:40.703Z,2.57
2017-11-11T06:41:08.281Z,3.10
2017-11-11T06:43:35.835Z,3.10
2017-11-11T06:46:03.399Z,2.63
2017-11-11T06:48:31.006Z,4.50
2017-11-11T06:50:58.567Z,2.03
2017-11-11T06:53:26.370Z,2.87
2017-11-11T06:55:54.008Z,2.90
2017-11-11T06:58:21.589Z,2.70
2017-11-11T07:00:49.157Z,3.00
2017-11-11T07:03:17.204Z,2.93
2017-11-11T07:05:44.762Z,2.70
2017-11-11T07:08:12.328Z,4.00
2017-11-11T07:10:39.881Z,4.40
2017-11-11T07:13:07.465Z,3.50
2017-11-11T07:15:35.031Z,3.27
2017-11-11T07:18:02.613Z,3.10
2017-11-11T07:20:30.178Z,2.83
2017-11-11T07:22:57.737Z,2.80
2017-11-11T07:25:25.290Z,2.90
2017-11-11T07:27:52.855Z,3.10
2017-11-11T07:30:20.418Z,3.50
2017-11-11T07:32:47.977Z,4.37
2017-11-11T07:35:15.755Z,2.63
2017-11-11T07:37:43.330Z,2.80
2017-11-11T07:40:10.896Z,3.17
2017-11-11T07:42:38.459Z,3.03
2017-11-11T07:45:06.035Z,2.83
2017-11-11T07:47:33.608Z,3.23
2017-11-11T07:50:01.186Z,2.83
2017-11-11T07:52:28.783Z,3.20
2017-11-11T07:54:56.369Z,2.70
2017-11-11T07:57:23.933Z,2.60
2017-11-11T07:59:51.593Z,3.10
2017-11-11T08:02:19.154Z,2.60
2017-11-11T08:04:46.712Z,2.70
2017-11-11T08:07:14.271Z,2.83
2017-11-11T08:09:41.893Z,2.90
2017-11-11T08:12:09.495Z,3.17
2017-11-11T08:14:37.343Z,2.80
2017-11-11T08:17:04.904Z,2.53
2017-11-11T08:19:32.458Z,2.77
2017-11-11T08:22:00.022Z,2.57
2017-11-11T08:24:27.589Z,2.90
2017-11-11T08:26:55.146Z,3.17
2017-11-11T08:29:22.713Z,3.03
2017-11-11T08:31:50.271Z,3.23
2017-11-11T08:34:17.862Z,2.90
2017-11-11T08:36:45.421Z,3.93
2017-11-11T08:39:13.166Z,3.30
2017-11-11T08:41:40.733Z,4.27
2017-11-11T08:44:08.297Z,3.13
2017-11-11T08:46:35.858Z,3.80
2017-11-11T08:49:03.761Z,2.90
2017-11-11T08:51:31.330Z,3.10
2017-11-11T08:53:58.904Z,3.70
2017-11-11T08:56:26.522Z,3.13
2017-11-11T08:58:54.087Z,3.30
2017-11-11T09:01:21.657Z,4.50
2017-11-11T09:03:49.336Z,3.30
2017-11-11T09:06:16.936Z,3.50
2017-11-11T09:08:44.589Z,3.67
2017-11-11T09:11:12.150Z,3.43
2017-11-11T09:13:39.719Z,4.10
2017-11-11T09:16:07.279Z,3.90
2017-11-11T09:18:34.843Z,3.20
2017-11-11T09:21:02.464Z,3.80
2017-11-11T09:23:30.034Z,2.90
2017-11-11T09:25:57.647Z,3.80
2017-11-11T09:28:25.510Z,3.10
2017-11-11T09:30:53.073Z,3.60
2017-11-11T09:33:20.633Z,4.00
2017-11-11T09:35:48.205Z,3.57
2017-11-11T09:38:15.763Z,3.33
2017-11-11T09:40:43.318Z,2.93
2017-11-11T09:43:11.010Z,4.10
2017-11-11T09:45:38.578Z,3.83
2017-11-11T09:48:06.143Z,3.00
2017-11-11T09:50:33.702Z,3.37
2017-11-11T09:53:01.258Z,4.20
2017-11-11T09:55:28.854Z,2.93
2017-11-11T09:57:56.445Z,3.50
2017-11-11T10:00:24.013Z,4.23
2017-11-11T10:02:51.579Z,3.30
2017-11-11T10:05:19.137Z,2.90
2017-11-11T10:07:46.735Z,2.40
2017-11-11T10:10:14.389Z,3.10
2017-11-11T10:12:41.951Z,4.83
2017-11-11T10:15:09.622Z,2.80
2017-11-11T10:17:37.236Z,3.67
2017-11-11T10:20:05.599Z,2.90
2017-11-11T10:22:33.163Z,2.80
2017-11-11T10:25:00.770Z,2.87
2017-11-11T10:27:28.331Z,2.90
2017-11-11T10:29:55.929Z,3.77
2017-11-11T10:32:23.493Z,2.97
2017-11-11T10:34:51.053Z,3.30
2017-11-11T10:37:18.620Z,2.70
2017-11-11T10:39:46.181Z,2.57
2017-11-11T10:42:13.757Z,4.43
2017-11-11T10:44:41.318Z,3.60
2017-11-11T10:47:08.974Z,2.40
2017-11-11T10:49:36.549Z,3.00
2017-11-11T10:52:04.110Z,2.93
2017-11-11T10:54:31.675Z,3.40
2017-11-11T10:56:59.249Z,3.40
2017-11-11T10:59:26.854Z,3.20
2017-11-11T11:01:54.409Z,3.57
2017-11-11T11:04:22.181Z,3.57
2017-11-11T11:06:49.855Z,3.90
2017-11-11T11:09:17.458Z,7.63
2017-11-11T11:11:45.118Z,3.60
2017-11-11T11:14:12.807Z,3.40
2017-11-11T11:16:40.368Z,3.50
2017-11-11T11:19:07.923Z,3.23
2017-11-11T11:21:35.492Z,3.70
2017-11-11T11:24:03.059Z,4.07
2017-11-11T11:26:31.040Z,3.83
2017-11-11T11:28:58.642Z,3.57
2017-11-11T11:31:26.239Z,3.57
2017-11-11T11:33:53.798Z,3.10
2017-11-11T11:36:21.363Z,3.60
2017-11-11T11:38:48.922Z,3.27
2017-11-11T11:41:16.482Z,3.07
2017-11-11T11:43:44.085Z,3.40
2017-11-11T11:46:11.706Z,4.90
2017-11-11T11:48:39.269Z,3.30
2017-11-11T11:51:06.891Z,3.37
2017-11-11T11:53:34.455Z,3.57
2017-11-11T11:56:02.020Z,3.47
2017-11-11T11:58:29.573Z,3.17
2017-11-11T12:00:57.140Z,3.80
2017-11-11T12:03:24.702Z,3.90
2017-11-11T12:05:52.268Z,4.03
2017-11-11T12:08:19.919Z,3.50
2017-11-11T12:10:47.527Z,2.90
2017-11-11T12:13:15.194Z,3.63
2017-11-11T12:15:42.806Z,4.13
2017-11-11T12:18:10.365Z,3.60
2017-11-11T12:20:37.934Z,4.17
2017-11-11T12:23:05.497Z,3.70
2017-11-11T12:25:33.068Z,4.10
2017-11-11T12:28:00.631Z,3.17
2017-11-11T12:30:28.274Z,4.20
2017-11-11T12:32:55.891Z,3.33
2017-11-11T12:35:23.489Z,4.23
2017-11-11T12:37:51.205Z,3.30
2017-11-11T12:40:18.848Z,3.50
2017-11-11T12:42:46.407Z,3.30
2017-11-11T12:45:13.959Z,3.80
2017-11-11T12:47:41.514Z,4.20
2017-11-11T12:50:09.112Z,2.90
2017-11-11T12:52:36.670Z,3.00
2017-11-11T12:55:04.258Z,4.07
2017-11-11T12:57:31.938Z,3.57
2017-11-11T12:59:59.742Z,4.37
2017-11-11T13:02:27.340Z,4.30
2017-11-11T13:04:54.930Z,4.20
2017-11-11T13:07:22.500Z,3.93
2017-11-11T13:09:50.057Z,4.33
2017-11-11T13:12:17.618Z,4.40
2017-11-11T13:14:45.180Z,3.83
2017-11-11T13:17:12.741Z,3.97
2017-11-11T13:19:40.299Z,4.27
2017-11-11T13:22:07.901Z,4.33
2017-11-11T13:24:35.540Z,3.83
2017-11-11T13:27:03.147Z,4.30
2017-11-11T13:29:30.770Z,3.70
2017-11-11T13:31:58.545Z,4.20
2017-11-11T13:34:26.176Z,5.17
2017-11-11T13:36:53.759Z,3.97
2017-11-11T13:39:21.327Z,4.40
2017-11-11T13:41:48.890Z,4.07
2017-11-11T13:44:16.463Z,3.83
2017-11-11T13:46:44.058Z,4.57
2017-11-11T13:49:11.640Z,4.17
2017-11-11T13:51:39.216Z,3.20
2017-11-11T13:54:06.793Z,3.43
2017-11-11T13:56:34.350Z,4.10
2017-11-11T13:59:01.958Z,3.80
2017-11-11T14:01:29.516Z,3.20
2017-11-11T14:03:57.071Z,3.10
2017-11-11T14:06:24.632Z,4.00
2017-11-11T14:08:52.187Z,3.97
2017-11-11T14:11:19.745Z,3.23
2017-11-11T14:13:47.305Z,3.73
2017-11-11T14:16:14.862Z,4.00
2017-11-11T14:18:42.419Z,2.93
2017-11-11T14:21:10.005Z,3.93
2017-11-11T14:23:37.563Z,3.00
2017-11-11T14:26:05.122Z,3.00
2017-11-11T14:28:32.703Z,2.70
2017-11-11T14:31:00.258Z,2.20
2017-11-11T14:33:27.843Z,2.40
2017-11-11T14:35:55.441Z,1.93
2017-11-11T14:38:23.043Z,2.27
2017-11-11T14:40:50.594Z,1.93
2017-11-11T14:43:18.149Z,2.27
2017-11-11T14:45:45.711Z,2.10
2017-11-11T14:48:13.268Z,2.30
2017-11-11T14:50:40.822Z,2.80
2017-11-11T14:53:08.386Z,2.60
2017-11-11T14:55:35.986Z,2.70
2017-11-11T14:58:03.537Z,2.90
2017-11-11T15:00:31.091Z,2.67
2017-11-11T15:02:58.672Z,3.30
2017-11-11T15:05:26.240Z,3.40
2017-11-11T15:07:53.897Z,3.33
2017-11-11T15:10:21.700Z,3.77
2017-11-11T15:12:49.303Z,3.40
2017-11-11T15:15:16.863Z,3.27
2017-11-11T15:17:44.428Z,4.77
2017-11-11T15:20:11.982Z,3.53
2017-11-11T15:22:39.543Z,3.63
2017-11-11T15:25:07.107Z,5.20
2017-11-11T15:27:34.670Z,4.50
2017-11-11T15:30:02.230Z,4.30
2017-11-11T15:32:29.789Z,3.73
2017-11-11T15:34:57.351Z,3.40
2017-11-11T15:37:24.901Z,3.57
2017-11-11T15:39:52.454Z,3.70
2017-11-11T15:42:20.006Z,3.60
2017-11-11T15:44:47.571Z,3.77
2017-11-11T15:47:15.178Z,4.20
2017-11-11T15:49:42.741Z,4.07
2017-11-11T15:52:10.298Z,4.13
2017-11-11T15:54:37.856Z,3.20
2017-11-11T15:57:05.417Z,3.10
2017-11-11T15:59:32.977Z,3.40
2017-11-11T16:02:00.530Z,3.40
2017-11-11T16:04:28.117Z,3.67
2017-11-11T16:06:55.679Z,2.80
2017-11-11T16:09:23.231Z,2.70
2017-11-11T16:11:50.846Z,3.20
2017-11-11T16:14:18.499Z,3.87
2017-11-11T16:16:46.055Z,2.60
2017-11-11T16:19:13.618Z,3.77
2017-11-11T16:21:41.221Z,3.80
2017-11-11T16:24:08.777Z,3.00
2017-11-11T16:26:36.346Z,4.77
2017-11-11T16:29:03.905Z,3.30
2017-11-11T16:31:31.461Z,3.30
2017-11-11T16:33:59.123Z,2.80
2017-11-11T16:36:26.710Z,2.73
2017-11-11T16:38:54.269Z,3.00
2017-11-11T16:41:21.834Z,4.10
2017-11-11T16:43:49.389Z,2.97
2017-11-11T16:46:16.959Z,2.93
2017-11-11T16:48:44.514Z,3.00
2017-11-11T16:51:12.114Z,2.90
2017-11-11T16:53:39.668Z,3.13
2017-11-11T16:56:07.222Z,3.00
2017-11-11T16:58:34.775Z,2.70
2017-11-11T17:01:02.333Z,2.87
2017-11-11T17:03:29.887Z,2.83
2017-11-11T17:05:57.444Z,3.33
2017-11-11T17:08:25.003Z,3.47
2017-11-11T17:10:52.570Z,3.50
2017-11-11T17:13:20.126Z,3.47
2017-11-11T17:15:47.763Z,2.83
2017-11-11T17:18:15.487Z,3.70
2017-11-11T17:20:43.069Z,3.40
2017-11-11T17:23:10.631Z,3.80
2017-11-11T17:25:38.194Z,4.20
2017-11-11T17:28:05.757Z,4.50
2017-11-11T17:30:33.347Z,3.63
2017-11-11T17:33:00.957Z,4.00
2017-11-11T17:35:28.518Z,4.60
2017-11-11T17:37:56.065Z,2.70
2017-11-11T17:40:23.625Z,2.83
2017-11-11T17:42:51.265Z,4.00
2017-11-11T17:45:18.823Z,3.37
2017-11-11T17:47:46.396Z,3.10
2017-11-11T17:50:13.954Z,2.93
2017-11-11T17:52:41.640Z,3.17
2017-11-11T17:55:09.201Z,3.50
2017-11-11T17:57:36.750Z,3.50
2017-11-11T18:00:04.308Z,3.80
2017-11-11T18:02:31.878Z,3.27
2017-11-11T18:04:59.439Z,4.90
2017-11-11T18:07:27.029Z,3.73
2017-11-11T18:09:54.628Z,4.00
2017-11-11T18:12:22.184Z,3.97
2017-11-11T18:14:49.750Z,6.37
2017-11-11T18:17:17.400Z,5.73
2017-11-11T18:19:44.959Z,4.03
2017-11-11T18:22:12.611Z,4.00
2017-11-11T18:24:40.174Z,3.90
2017-11-11T18:27:07.845Z,4.60
2017-11-11T18:29:35.436Z,4.70
2017-11-11T18:32:03.019Z,5.70
2017-11-11T18:34:30.630Z,5.17
2017-11-11T18:36:58.190Z,5.30
2017-11-11T18:39:25.746Z,5.60
2017-11-11T18:41:53.297Z,4.87
2017-11-11T18:44:20.899Z,5.83
2017-11-11T18:46:48.466Z,5.40
2017-11-11T18:49:19.437Z,5.27
2017-11-11T18:51:48.449Z,5.50
2017-11-11T18:54:16.053Z,6.07
2017-11-11T18:56:43.613Z,6.57
2017-11-11T18:59:11.171Z,6.83
2017-11-11T19:01:38.744Z,7.50
2017-11-11T19:04:06.325Z,6.30
2017-11-11T19:06:33.887Z,6.40
2017-11-11T19:09:01.444Z,5.90
2017-11-11T19:11:29.005Z,7.23
2017-11-11T19:13:56.565Z,6.27
2017-11-11T19:16:24.125Z,6.40
2017-11-11T19:18:51.697Z,7.03
2017-11-11T19:21:19.261Z,7.47
2017-11-11T19:23:46.825Z,8.10
2017-11-11T19:26:14.385Z,8.43
2017-11-11T19:28:41.949Z,7.83
2017-11-11T19:31:09.513Z,9.20
2017-11-11T19:33:37.108Z,9.00
2017-11-11T19:36:04.672Z,7.40
2017-11-11T19:38:32.281Z,6.63
2017-11-11T19:40:59.846Z,7.67
2017-11-11T19:43:27.411Z,7.60
2017-11-11T19:45:56.144Z,7.47
2017-11-11T19:48:23.748Z,5.77
2017-11-11T19:50:52.084Z,6.53
2017-11-11T19:53:19.684Z,6.77
2017-11-11T19:55:47.308Z,5.60
2017-11-11T19:58:15.760Z,5.60
2017-11-11T20:00:43.329Z,7.00
2017-11-11T20:03:10.891Z,6.07
2017-11-11T20:05:38.461Z,6.47
2017-11-11T20:08:06.073Z,6.50
2017-11-11T20:10:33.639Z,5.30
2017-11-11T20:13:01.195Z,7.63
2017-11-11T20:15:28.755Z,6.60
2017-11-11T20:17:56.314Z,5.53
2017-11-11T20:20:23.927Z,6.57
2017-11-11T20:22:51.494Z,6.97
2017-11-11T20:25:19.067Z,7.07
2017-11-11T20:27:46.633Z,7.10
2017-11-11T20:30:14.199Z,6.73
2017-11-11T20:32:41.758Z,9.17
2017-11-11T20:35:09.322Z,8.70
2017-11-11T20:37:36.930Z,7.57
2017-11-11T20:40:04.505Z,7.70
2017-11-11T20:42:32.120Z,8.27
2017-11-11T20:47:55.035Z,7.87
2017-11-11T20:50:22.600Z,9.53
2017-11-11T20:52:50.167Z,7.63
2017-11-11T20:55:17.727Z,7.40
2017-11-11T20:57:45.385Z,6.90
2017-11-11T21:00:12.978Z,6.40
2017-11-11T21:02:40.541Z,7.20
2017-11-11T21:05:08.103Z,8.60
2017-11-11T21:07:35.666Z,7.87
2017-11-11T21:10:03.230Z,6.03
2017-11-11T21:12:30.806Z,5.90
2017-11-11T21:14:58.397Z,6.60
2017-11-11T21:17:25.974Z,5.53
2017-11-11T21:19:53.526Z,5.83
2017-11-11T21:22:21.093Z,6.20
2017-11-11T21:24:48.653Z,5.53
2017-11-11T21:27:16.251Z,5.10
2017-11-11T21:29:43.810Z,5.00
2017-11-11T21:32:12.390Z,4.80
2017-11-11T21:34:39.950Z,5.63
2017-11-11T21:37:07.513Z,5.70
2017-11-11T21:39:35.091Z,6.13
2017-11-11T21:42:02.651Z,5.80
2017-11-11T21:44:30.264Z,7.13
2017-11-11T21:46:57.841Z,6.60
2017-11-11T21:49:25.401Z,7.30
2017-11-11T21:51:52.971Z,7.03
2017-11-11T21:54:20.578Z,6.90
2017-11-11T21:56:48.163Z,8.27
2017-11-11T21:59:15.729Z,8.30
2017-11-11T22:01:43.291Z,8.47
2017-11-11T22:04:10.856Z,9.27
2017-11-11T22:06:38.419Z,8.60
2017-11-11T22:09:05.988Z,10.07
2017-11-11T22:11:33.542Z,8.97
2017-11-11T22:14:01.107Z,10.90
2017-11-11T22:16:28.681Z,9.30
2017-11-11T22:18:56.242Z,8.70
2017-11-11T22:21:23.807Z,8.07
2017-11-11T22:23:51.406Z,9.37
2017-11-11T22:26:18.979Z,9.73
2017-11-11T22:28:46.554Z,9.03
2017-11-11T22:31:14.117Z,7.77
2017-11-11T22:33:41.676Z,8.73
2017-11-11T22:36:11.187Z,7.30
2017-11-11T22:38:38.781Z,9.37
2017-11-11T22:41:06.347Z,7.80
2017-11-11T22:43:33.914Z,7.30
2017-11-11T22:46:01.516Z,8.57
2017-11-11T22:48:29.117Z,8.70
2017-11-11T22:50:56.715Z,8.27
2017-11-11T22:53:25.185Z,6.80
2017-11-11T22:55:52.808Z,7.60
2017-11-11T22:58:22.762Z,9.10
2017-11-11T23:00:52.973Z,6.87
2017-11-11T23:03:22.458Z,7.90
2017-11-11T23:05:52.760Z,6.70
2017-11-11T23:08:20.341Z,7.17
2017-11-11T23:10:47.902Z,7.50
2017-11-11T23:13:15.466Z,7.70
2017-11-11T23:15:43.035Z,8.40
2017-11-11T23:18:10.702Z,6.70
2017-11-11T23:20:38.274Z,7.63
2017-11-11T23:23:05.849Z,7.23
2017-11-11T23:25:33.430Z,6.43
2017-11-11T23:28:00.998Z,7.00
2017-11-11T23:30:28.586Z,6.87
2017-11-11T23:32:57.160Z,6.87
2017-11-11T23:35:24.761Z,6.63
2017-11-11T23:37:52.340Z,6.73
2017-11-11T23:40:19.909Z,7.43
2017-11-11T23:42:47.478Z,7.40
2017-11-11T23:45:15.046Z,5.60
2017-11-11T23:47:42.647Z,6.03
2017-11-11T23:50:10.202Z,7.23
2017-11-11T23:52:37.802Z,7.30
2017-11-11T23:55:05.394Z,6.90
2017-11-11T23:57:32.964Z,8.50
